createdAt,value
2022-12-18T00:02:11.871Z,-9.1
2022-12-18T00:22:12.663Z,-9.2
2022-12-18T00:32:13.389Z,-9.2
2022-12-18T00:42:13.999Z,-9.3
2022-12-18T00:52:14.834Z,-9.3
2022-12-18T01:02:15.891Z,-9.4
2022-12-18T01:12:16.488Z,-9.3
2022-12-18T01:22:17.480Z,-9.4
2022-12-18T01:32:18.462Z,-9.4
2022-12-18T01:42:18.979Z,-9.5
2022-12-18T01:52:19.791Z,-9.6
2022-12-18T02:02:20.287Z,-9.7
2022-12-18T02:12:20.320Z,-9.9
2022-12-18T02:22:21.071Z,-9.9
2022-12-18T02:32:21.908Z,-9.9
2022-12-18T02:42:22.665Z,-9.9
2022-12-18T02:52:23.432Z,-10
2022-12-18T03:02:23.744Z,-10
2022-12-18T03:12:24.125Z,-10
2022-12-18T03:22:25.033Z,-10
2022-12-18T03:32:25.972Z,-9.9
2022-12-18T03:42:26.853Z,-9.9
2022-12-18T04:02:27.593Z,-10.1
2022-12-18T04:12:28.195Z,-10.2
2022-12-18T04:22:28.747Z,-10.2
2022-12-18T04:32:29.261Z,-10.2
2022-12-18T04:42:29.862Z,-10.4
2022-12-18T04:52:30.520Z,-10.4
2022-12-18T05:02:31.225Z,-10.4
2022-12-18T05:12:31.386Z,-10.5
2022-12-18T05:22:31.853Z,-10.6
2022-12-18T05:32:32.180Z,-10.6
2022-12-18T05:42:33.228Z,-10.6
2022-12-18T05:52:33.333Z,-10.6
2022-12-18T06:02:34.070Z,-10.5
2022-12-18T06:12:34.881Z,-10.5
2022-12-18T06:22:35.469Z,-10.5
2022-12-18T06:32:36.236Z,-10.6
2022-12-18T06:52:36.867Z,-10.6
2022-12-18T07:02:37.868Z,-10.6
2022-12-18T07:12:38.387Z,-10.6
2022-12-18T07:22:38.840Z,-10.6
2022-12-18T07:32:39.381Z,-10.7
2022-12-18T07:42:40.263Z,-10.6
2022-12-18T08:02:42.220Z,-10.3
2022-12-18T08:12:41.902Z,-10
2022-12-18T08:22:42.544Z,-9.6
2022-12-18T08:32:43.572Z,-9.1
2022-12-18T08:42:43.909Z,-8.7
2022-12-18T08:52:44.398Z,-8.4
2022-12-18T09:02:45.410Z,-8.1
2022-12-18T09:12:45.545Z,-7.7
2022-12-18T09:22:46.127Z,-7.4
2022-12-18T09:42:47.554Z,-6.8
2022-12-18T09:52:47.796Z,-6.6
2022-12-18T10:02:48.275Z,-6.3
2022-12-18T10:12:48.915Z,-5.9
2022-12-18T10:13:10.839Z,-5.9
2022-12-18T10:22:55.308Z,-5.5
2022-12-18T10:32:55.494Z,-5.2
2022-12-18T10:42:56.248Z,-4.9
2022-12-18T10:52:56.714Z,-4.6
2022-12-18T11:02:57.222Z,-4.5
2022-12-18T11:12:57.614Z,-4.3
2022-12-18T11:22:58.626Z,-4.1
2022-12-18T11:42:59.675Z,-3.6
2022-12-18T11:53:05.539Z,-3.4
2022-12-18T12:03:01.143Z,-3.1
2022-12-18T12:13:01.855Z,-2.8
2022-12-18T12:23:02.238Z,-2.7
2022-12-18T12:33:02.457Z,-2.6
2022-12-18T12:43:02.726Z,-2.5
2022-12-18T13:03:04.242Z,-2.4
2022-12-18T13:13:04.893Z,-2.3
2022-12-18T13:23:05.627Z,-2.3
2022-12-18T13:43:06.192Z,-2.3
2022-12-18T13:53:06.362Z,-2.2
2022-12-18T14:03:06.742Z,-2.2
2022-12-18T14:13:07.119Z,-2.2
2022-12-18T14:23:07.421Z,-2.2
2022-12-18T14:33:07.558Z,-2.2
2022-12-18T14:43:08.316Z,-2.2
2022-12-18T15:03:09.855Z,-2.2
2022-12-18T15:13:10.241Z,-2.2
2022-12-18T15:23:10.783Z,-2.2
2022-12-18T15:33:10.902Z,-2.2
2022-12-18T15:43:11.577Z,-2.2
2022-12-18T15:53:11.774Z,-2.2
2022-12-18T16:03:12.081Z,-2.2
2022-12-18T16:13:12.653Z,-2.2
2022-12-18T16:23:13.431Z,-2.1
2022-12-18T16:33:14.009Z,-2.1
2022-12-18T16:43:14.361Z,-2.1
2022-12-18T16:53:15.399Z,-2.1
2022-12-18T17:03:16.174Z,-2.1
2022-12-18T17:13:18.380Z,-2.1
2022-12-18T17:23:17.348Z,-2
2022-12-18T17:33:18.204Z,-1.7
2022-12-18T17:43:18.363Z,-1.6
2022-12-18T17:53:18.698Z,-1.6
2022-12-18T18:03:19.225Z,-1.5
2022-12-18T18:23:20.712Z,-1.3
2022-12-18T18:33:21.640Z,-1
2022-12-18T18:43:22.316Z,-0.8
2022-12-18T18:53:22.822Z,-0.6
2022-12-18T19:03:23.892Z,-0.5
2022-12-18T19:13:24.749Z,-0.4
2022-12-18T19:23:25.373Z,-0.4
2022-12-18T19:33:42.109Z,-0.4
2022-12-18T19:43:26.805Z,-0.4
2022-12-18T19:53:27.649Z,-0.4
2022-12-18T20:03:32.260Z,-0.4
2022-12-18T20:13:28.886Z,-0.3
2022-12-18T20:23:29.520Z,-0.2
2022-12-18T20:33:30.293Z,-0.1
2022-12-18T20:53:31.100Z,0
2022-12-18T21:03:31.669Z,0
2022-12-18T21:13:32.321Z,0.1
2022-12-18T21:23:32.734Z,0.1
2022-12-18T21:53:34.062Z,0
2022-12-18T22:13:35.366Z,0
2022-12-18T22:23:36.236Z,0
2022-12-18T22:33:36.386Z,0
2022-12-18T22:43:37.139Z,0
2022-12-18T22:53:38.041Z,0
2022-12-18T23:03:38.908Z,0
2022-12-18T23:13:39.771Z,0.1
2022-12-18T23:23:40.745Z,0.2
2022-12-18T23:33:41.768Z,0.2
2022-12-18T23:43:42.705Z,0.2
2022-12-18T23:53:42.960Z,0.2
